createdAt,value
2022-10-25T00:01:45.296Z,81.12
2022-10-25T00:04:18.926Z,81.18
2022-10-25T00:06:53.213Z,81.17
2022-10-25T00:09:26.201Z,81.23
2022-10-25T00:11:59.406Z,81.09
2022-10-25T00:14:32.789Z,81.04
2022-10-25T00:17:05.686Z,81.25
2022-10-25T00:19:38.802Z,81.31
2022-10-25T00:22:13.245Z,81.03
2022-10-25T00:24:46.894Z,81.34
2022-10-25T00:27:19.775Z,81.24
2022-10-25T00:29:53.759Z,81.31
2022-10-25T00:32:26.935Z,81.51
2022-10-25T00:34:59.826Z,81.53
2022-10-25T00:37:34.545Z,81.39
2022-10-25T00:40:09.557Z,81.49
2022-10-25T00:42:42.703Z,81.57
2022-10-25T00:45:23.409Z,81.30
2022-10-25T00:48:02.193Z,80.93
2022-10-25T00:50:46.521Z,81.19
2022-10-25T00:53:25.004Z,80.76
2022-10-25T00:56:03.372Z,81.01
2022-10-25T00:58:40.060Z,80.70
2022-10-25T01:01:14.687Z,80.80
2022-10-25T01:03:52.535Z,80.51
2022-10-25T01:06:32.720Z,80.24
2022-10-25T01:09:10.181Z,79.99
2022-10-25T01:11:43.069Z,79.79
2022-10-25T01:14:17.517Z,79.94
2022-10-25T01:17:06.266Z,80.06
2022-10-25T01:19:58.301Z,80.41
2022-10-25T01:22:38.847Z,80.70
2022-10-25T01:25:34.536Z,80.76
2022-10-25T01:28:13.874Z,81.10
2022-10-25T01:31:07.871Z,80.85
2022-10-25T01:33:48.482Z,80.64
2022-10-25T01:36:30.512Z,80.50
2022-10-25T01:39:10.055Z,80.49
2022-10-25T01:41:52.076Z,80.39
2022-10-25T01:44:40.307Z,80.07
2022-10-25T01:47:19.330Z,79.75
2022-10-25T01:49:57.764Z,79.96
2022-10-25T01:52:31.378Z,79.83
2022-10-25T01:55:10.445Z,80.05
2022-10-25T01:58:02.610Z,79.92
2022-10-25T02:00:44.551Z,80.04
2022-10-25T02:03:29.700Z,80.00
2022-10-25T02:06:16.054Z,79.75
2022-10-25T02:08:53.286Z,79.34
2022-10-25T02:11:29.461Z,79.52
2022-10-25T02:14:12.223Z,79.02
2022-10-25T02:16:50.799Z,78.75
2022-10-25T02:19:31.028Z,78.18
2022-10-25T02:22:06.908Z,77.67
2022-10-25T02:24:41.558Z,77.46
2022-10-25T02:27:15.927Z,77.05
2022-10-25T02:29:49.964Z,76.80
2022-10-25T02:32:23.833Z,76.74
2022-10-25T02:34:58.794Z,76.63
2022-10-25T02:37:32.850Z,76.71
2022-10-25T02:40:08.535Z,76.59
2022-10-25T02:42:41.900Z,77.00
2022-10-25T02:45:15.520Z,76.99
2022-10-25T02:47:49.172Z,76.93
2022-10-25T02:50:24.165Z,77.04
2022-10-25T02:52:57.253Z,77.21
2022-10-25T02:55:30.972Z,77.34
2022-10-25T02:58:04.256Z,77.29
2022-10-25T03:00:38.406Z,77.63
2022-10-25T03:03:11.905Z,77.99
2022-10-25T03:05:47.417Z,78.04
2022-10-25T03:08:21.175Z,78.53
2022-10-25T03:10:54.804Z,79.23
2022-10-25T03:13:28.064Z,79.61
2022-10-25T03:16:01.347Z,79.40
2022-10-25T03:18:34.473Z,79.81
2022-10-25T03:21:09.799Z,79.69
2022-10-25T03:23:42.790Z,79.63
2022-10-25T03:26:17.283Z,79.18
2022-10-25T03:28:50.344Z,79.26
2022-10-25T03:31:23.869Z,78.90
2022-10-25T03:33:57.367Z,78.49
2022-10-25T03:36:32.278Z,78.07
2022-10-25T03:39:05.262Z,78.35
2022-10-25T03:41:39.914Z,78.77
2022-10-25T03:44:13.534Z,79.23
2022-10-25T03:46:46.585Z,79.12
2022-10-25T03:49:19.498Z,78.72
2022-10-25T03:51:57.129Z,78.77
2022-10-25T03:54:33.348Z,78.67
2022-10-25T03:57:06.844Z,78.40
2022-10-25T03:59:40.396Z,78.23
2022-10-25T04:02:13.801Z,78.06
2022-10-25T04:04:47.193Z,77.94
2022-10-25T04:07:21.872Z,77.83
2022-10-25T04:09:54.868Z,77.90
2022-10-25T04:12:28.078Z,78.03
2022-10-25T04:15:01.362Z,77.74
2022-10-25T04:17:34.705Z,77.11
2022-10-25T04:20:09.562Z,77.49
2022-10-25T04:22:44.310Z,77.91
2022-10-25T04:25:18.351Z,77.44
2022-10-25T04:27:51.395Z,77.41
2022-10-25T04:30:24.288Z,77.81
2022-10-25T04:32:58.214Z,78.26
2022-10-25T04:35:31.229Z,77.99
2022-10-25T04:38:06.178Z,77.51
2022-10-25T04:40:39.652Z,77.98
2022-10-25T04:43:13.205Z,78.12
2022-10-25T04:45:46.530Z,77.86
2022-10-25T04:48:20.429Z,78.29
2022-10-25T04:50:53.397Z,78.50
2022-10-25T04:53:28.728Z,78.59
2022-10-25T04:56:04.683Z,79.12
2022-10-25T04:58:38.472Z,79.42
2022-10-25T05:01:13.323Z,80.09
2022-10-25T05:03:46.843Z,81.10
2022-10-25T05:06:22.757Z,81.47
2022-10-25T05:08:57.107Z,81.18
2022-10-25T05:11:30.234Z,80.93
2022-10-25T05:14:03.554Z,81.16
2022-10-25T05:16:36.670Z,80.57
2022-10-25T05:19:10.261Z,80.70
2022-10-25T05:21:43.251Z,80.06
2022-10-25T05:24:17.793Z,79.05
2022-10-25T05:26:50.901Z,79.14
2022-10-25T05:29:23.797Z,78.65
2022-10-25T05:31:56.921Z,78.18
2022-10-25T05:34:29.909Z,77.85
2022-10-25T05:37:02.841Z,77.26
2022-10-25T05:39:36.969Z,77.49
2022-10-25T05:42:09.865Z,77.51
2022-10-25T05:44:42.734Z,78.11
2022-10-25T05:47:15.851Z,78.58
2022-10-25T05:49:49.052Z,78.59
2022-10-25T05:52:24.445Z,78.75
2022-10-25T05:54:59.286Z,79.20
2022-10-25T05:57:32.600Z,78.88
2022-10-25T06:00:07.215Z,78.36
2022-10-25T06:02:40.443Z,78.58
2022-10-25T06:05:13.394Z,78.48
2022-10-25T06:07:46.381Z,78.19
2022-10-25T06:10:21.050Z,78.46
2022-10-25T06:12:55.435Z,78.40
2022-10-25T06:15:28.578Z,78.02
2022-10-25T06:18:01.467Z,78.76
2022-10-25T06:20:34.452Z,78.30
2022-10-25T06:23:09.224Z,79.17
2022-10-25T06:25:46.052Z,79.57
2022-10-25T06:28:19.366Z,80.45
2022-10-25T06:30:52.441Z,80.31
2022-10-25T06:33:27.904Z,81.07
2022-10-25T06:36:02.518Z,81.33
2022-10-25T06:38:35.876Z,81.49
2022-10-25T06:41:13.753Z,81.79
2022-10-25T06:43:46.952Z,81.29
2022-10-25T06:46:23.692Z,81.75
2022-10-25T06:48:58.473Z,81.17
2022-10-25T06:51:33.441Z,80.97
2022-10-25T06:54:09.874Z,81.19
2022-10-25T06:56:44.530Z,81.25
2022-10-25T06:59:18.144Z,81.17
2022-10-25T07:01:51.279Z,81.06
2022-10-25T07:04:24.295Z,81.18
2022-10-25T07:06:57.311Z,80.81
2022-10-25T07:09:30.639Z,80.86
2022-10-25T07:12:08.794Z,80.74
2022-10-25T07:14:45.942Z,80.89
2022-10-25T07:17:18.740Z,80.85
2022-10-25T07:19:52.285Z,80.98
2022-10-25T07:22:25.810Z,81.50
2022-10-25T07:24:59.014Z,81.46
2022-10-25T07:27:34.500Z,81.72
2022-10-25T07:30:08.686Z,81.79
2022-10-25T07:32:42.620Z,81.61
2022-10-25T07:35:15.628Z,81.20
2022-10-25T07:37:49.150Z,81.21
2022-10-25T07:40:22.220Z,81.04
2022-10-25T07:42:57.044Z,81.27
2022-10-25T07:45:31.271Z,81.29
2022-10-25T07:48:04.783Z,81.50
2022-10-25T07:50:38.398Z,81.40
2022-10-25T07:53:11.734Z,81.59
2022-10-25T07:55:44.621Z,81.80
2022-10-25T07:58:21.123Z,81.95
2022-10-25T08:00:54.163Z,81.66
2022-10-25T08:03:27.082Z,81.83
2022-10-25T08:06:00.965Z,81.33
2022-10-25T08:08:34.087Z,81.60
2022-10-25T08:11:08.278Z,81.31
2022-10-25T08:13:42.965Z,81.30
2022-10-25T08:16:15.972Z,81.50
2022-10-25T08:18:48.865Z,81.21
2022-10-25T08:21:21.882Z,81.74
2022-10-25T08:23:55.104Z,82.14
2022-10-25T08:26:30.151Z,82.11
2022-10-25T08:29:06.175Z,81.22
2022-10-25T08:31:39.153Z,81.38
2022-10-25T08:34:12.228Z,81.24
2022-10-25T08:36:45.302Z,80.81
2022-10-25T08:39:18.414Z,80.65
2022-10-25T08:41:55.126Z,80.76
2022-10-25T08:44:40.700Z,81.03
2022-10-25T08:47:19.522Z,81.31
2022-10-25T08:49:57.090Z,81.44
2022-10-25T08:52:35.238Z,80.54
2022-10-25T08:55:18.797Z,80.55
2022-10-25T08:57:53.948Z,79.99
2022-10-25T09:00:36.464Z,79.43
2022-10-25T09:03:15.880Z,79.47
2022-10-25T09:06:00.345Z,79.38
2022-10-25T09:08:47.969Z,79.17
2022-10-25T09:11:38.783Z,79.21
2022-10-25T09:14:19.423Z,79.15
2022-10-25T09:16:54.995Z,79.28
2022-10-25T09:19:50.215Z,78.69
2022-10-25T09:22:29.906Z,79.41
2022-10-25T09:25:05.218Z,79.37
2022-10-25T09:27:40.519Z,79.28
2022-10-25T09:30:15.084Z,79.28
2022-10-25T09:32:55.353Z,79.10
2022-10-25T09:35:33.013Z,79.12
2022-10-25T09:38:13.224Z,79.13
2022-10-25T09:40:49.213Z,79.15
2022-10-25T09:43:28.279Z,78.79
2022-10-25T09:46:04.660Z,78.98
2022-10-25T09:48:46.586Z,78.94
2022-10-25T09:51:25.429Z,79.36
2022-10-25T09:53:59.979Z,78.74
2022-10-25T09:56:32.864Z,78.66
2022-10-25T09:59:05.742Z,78.63
2022-10-25T10:01:41.153Z,78.76
2022-10-25T10:04:27.130Z,78.05
2022-10-25T10:07:07.881Z,77.87
2022-10-25T10:09:45.933Z,78.53
2022-10-25T10:12:24.449Z,78.21
2022-10-25T10:15:02.586Z,78.51
2022-10-25T10:17:35.913Z,78.54
2022-10-25T10:20:13.949Z,78.21
2022-10-25T10:22:53.156Z,78.41
2022-10-25T10:25:28.827Z,78.31
2022-10-25T10:28:01.781Z,78.49
2022-10-25T10:30:38.941Z,78.61
2022-10-25T10:33:18.575Z,77.59
2022-10-25T10:35:54.853Z,78.22
2022-10-25T10:38:29.189Z,78.43
2022-10-25T10:41:15.762Z,77.96
2022-10-25T10:43:48.563Z,78.76
2022-10-25T10:46:24.742Z,78.34
2022-10-25T10:48:59.216Z,79.10
2022-10-25T10:51:44.939Z,78.31
2022-10-25T10:54:30.421Z,77.94
2022-10-25T10:57:05.479Z,78.74
2022-10-25T10:59:53.470Z,78.83
2022-10-25T11:02:39.218Z,78.61
2022-10-25T11:05:25.527Z,78.58
2022-10-25T11:08:02.424Z,79.05
2022-10-25T11:10:36.476Z,78.64
2022-10-25T11:13:12.638Z,78.93
2022-10-25T11:16:37.381Z,78.27
2022-10-25T11:19:32.159Z,78.67
2022-10-25T11:22:23.540Z,78.91
2022-10-25T11:25:11.326Z,78.93
2022-10-25T11:27:56.762Z,78.51
2022-10-25T11:30:38.152Z,79.23
2022-10-25T11:33:43.370Z,78.89
2022-10-25T11:36:27.591Z,78.65
2022-10-25T11:39:13.265Z,78.55
2022-10-25T11:41:52.180Z,78.61
2022-10-25T11:44:48.061Z,78.34
2022-10-25T11:47:36.750Z,78.46
2022-10-25T11:50:23.549Z,79.06
2022-10-25T11:53:20.834Z,78.72
2022-10-25T11:56:00.142Z,78.82
2022-10-25T11:58:46.011Z,78.63
2022-10-25T12:01:31.781Z,78.82
2022-10-25T12:04:26.953Z,78.77
2022-10-25T12:07:10.524Z,78.74
2022-10-25T12:09:51.750Z,78.98
2022-10-25T12:12:38.795Z,78.67
2022-10-25T12:15:20.783Z,77.72
2022-10-25T12:17:54.399Z,78.36
2022-10-25T12:20:29.656Z,78.54
2022-10-25T12:23:06.032Z,78.43
2022-10-25T12:25:42.588Z,78.89
2022-10-25T12:28:24.208Z,78.35
2022-10-25T12:31:02.387Z,78.07
2022-10-25T12:33:40.350Z,78.43
2022-10-25T12:36:20.542Z,77.87
2022-10-25T12:38:53.777Z,78.82
2022-10-25T12:41:30.167Z,78.16
2022-10-25T12:44:24.160Z,78.00
2022-10-25T12:47:29.966Z,77.74
2022-10-25T12:50:31.156Z,78.08
2022-10-25T12:53:49.704Z,77.51
2022-10-25T12:56:37.732Z,77.48
2022-10-25T12:59:26.411Z,77.67
2022-10-25T13:02:22.233Z,77.42
2022-10-25T13:05:12.680Z,77.41
2022-10-25T13:07:50.173Z,77.25
2022-10-25T13:13:06.582Z,77.36
2022-10-25T13:15:43.591Z,77.63
2022-10-25T13:18:40.238Z,77.52
2022-10-25T13:21:15.465Z,77.52
2022-10-25T13:24:04.739Z,77.05
2022-10-25T13:27:21.463Z,77.21
2022-10-25T13:30:26.770Z,77.88
2022-10-25T13:33:28.292Z,77.38
2022-10-25T13:36:04.816Z,77.77
2022-10-25T13:38:40.054Z,77.88
2022-10-25T13:41:19.660Z,77.05
2022-10-25T13:44:02.556Z,77.47
2022-10-25T13:46:40.152Z,77.57
2022-10-25T13:49:33.356Z,77.12
2022-10-25T13:52:09.618Z,77.02
2022-10-25T13:54:50.998Z,76.66
2022-10-25T13:57:48.686Z,76.60
2022-10-25T14:00:38.389Z,76.29
2022-10-25T14:03:36.388Z,76.18
2022-10-25T14:06:25.472Z,75.74
2022-10-25T14:09:09.983Z,76.50
2022-10-25T14:11:49.909Z,76.29
2022-10-25T14:14:30.805Z,76.88
2022-10-25T14:17:13.242Z,76.88
2022-10-25T14:19:49.183Z,76.49
2022-10-25T14:22:39.726Z,76.76
2022-10-25T14:25:22.411Z,75.46
2022-10-25T14:28:07.061Z,75.55
2022-10-25T14:30:44.613Z,75.73
2022-10-25T14:33:28.339Z,75.36
2022-10-25T14:36:10.451Z,76.15
2022-10-25T14:38:53.474Z,75.96
2022-10-25T14:41:28.823Z,75.96
2022-10-25T14:44:03.406Z,76.11
2022-10-25T14:46:45.507Z,75.43
2022-10-25T14:49:23.085Z,75.54
2022-10-25T14:52:00.658Z,75.96
2022-10-25T14:54:37.149Z,75.85
2022-10-25T14:57:12.781Z,75.51
2022-10-25T14:59:49.411Z,75.61
2022-10-25T15:02:27.557Z,75.87
2022-10-25T15:05:02.241Z,76.29
2022-10-25T15:07:39.728Z,76.18
2022-10-25T15:10:41.748Z,75.94
2022-10-25T15:13:18.325Z,76.92
2022-10-25T15:15:52.653Z,76.71
2022-10-25T15:18:35.631Z,76.47
2022-10-25T15:21:13.042Z,76.25
2022-10-25T15:24:10.403Z,76.05
2022-10-25T15:26:53.756Z,76.54
2022-10-25T15:29:32.995Z,76.21
2022-10-25T15:32:05.869Z,76.27
2022-10-25T15:34:40.589Z,76.04
2022-10-25T15:37:15.140Z,76.24
2022-10-25T15:39:49.402Z,76.04
2022-10-25T15:42:23.762Z,76.27
2022-10-25T15:44:57.246Z,76.42
2022-10-25T15:47:33.451Z,76.21
2022-10-25T15:50:15.341Z,76.08
2022-10-25T15:52:48.949Z,76.08
2022-10-25T15:55:28.162Z,76.13
2022-10-25T15:58:01.312Z,76.27
2022-10-25T16:00:34.624Z,76.26
2022-10-25T16:03:08.543Z,76.40
2022-10-25T16:05:43.217Z,76.40
2022-10-25T16:08:16.425Z,76.67
2022-10-25T16:10:49.474Z,76.87
2022-10-25T16:13:27.447Z,76.76
2022-10-25T16:16:04.642Z,76.78
2022-10-25T16:18:44.858Z,76.81
2022-10-25T16:21:20.391Z,76.55
2022-10-25T16:23:53.382Z,77.00
2022-10-25T16:26:33.821Z,76.92
2022-10-25T16:29:06.827Z,76.95
2022-10-25T16:31:39.682Z,76.98
2022-10-25T16:34:12.983Z,77.18
2022-10-25T16:36:48.292Z,77.11
2022-10-25T16:39:21.726Z,77.13
2022-10-25T16:41:56.854Z,77.46
2022-10-25T16:44:29.849Z,77.43
2022-10-25T16:47:02.841Z,77.46
2022-10-25T16:49:35.762Z,77.10
2022-10-25T16:52:10.059Z,77.10
2022-10-25T16:54:42.916Z,77.34
2022-10-25T16:57:16.692Z,77.48
2022-10-25T16:59:51.653Z,77.27
2022-10-25T17:02:26.158Z,77.61
2022-10-25T17:04:59.007Z,77.46
2022-10-25T17:07:33.793Z,77.66
2022-10-25T17:10:07.354Z,77.77
2022-10-25T17:12:44.484Z,77.95
2022-10-25T17:15:18.602Z,77.66
2022-10-25T17:17:51.825Z,77.76
2022-10-25T17:20:24.860Z,77.56
2022-10-25T17:23:01.672Z,77.83
2022-10-25T17:25:35.056Z,78.03
2022-10-25T17:28:08.606Z,77.68
2022-10-25T17:30:44.279Z,77.60
2022-10-25T17:33:17.160Z,77.60
2022-10-25T17:35:51.306Z,77.71
2022-10-25T17:38:25.927Z,78.11
2022-10-25T17:40:58.904Z,78.57
2022-10-25T17:43:32.216Z,78.80
2022-10-25T17:46:08.008Z,79.40
2022-10-25T17:48:40.957Z,79.66
2022-10-25T17:51:15.820Z,79.83
2022-10-25T17:53:57.372Z,80.51
2022-10-25T17:59:08.676Z,81.22
2022-10-25T18:01:42.020Z,81.08
2022-10-25T18:04:15.117Z,81.16
2022-10-25T18:06:47.973Z,81.37
2022-10-25T18:09:22.253Z,80.90
2022-10-25T18:11:55.281Z,81.04
2022-10-25T18:14:28.356Z,81.24
2022-10-25T18:17:01.765Z,81.32
2022-10-25T18:19:39.834Z,80.99
2022-10-25T18:22:12.837Z,80.96
2022-10-25T18:24:47.526Z,80.78
2022-10-25T18:27:20.923Z,80.54
2022-10-25T18:29:55.424Z,80.76
2022-10-25T18:32:36.287Z,80.88
2022-10-25T18:35:10.584Z,80.85
2022-10-25T18:37:43.446Z,80.61
2022-10-25T18:40:18.405Z,80.29
2022-10-25T18:42:51.205Z,80.35
2022-10-25T18:45:24.150Z,79.99
2022-10-25T18:47:59.093Z,80.06
2022-10-25T18:50:32.001Z,79.81
2022-10-25T18:53:05.466Z,78.92
2022-10-25T18:55:39.854Z,78.54
2022-10-25T18:58:13.087Z,78.38
2022-10-25T19:00:47.000Z,78.10
2022-10-25T19:03:19.810Z,77.93
2022-10-25T19:05:52.769Z,77.58
2022-10-25T19:08:25.973Z,78.02
2022-10-25T19:11:05.483Z,77.50
2022-10-25T19:13:38.787Z,78.03
2022-10-25T19:16:13.436Z,77.77
2022-10-25T19:18:46.618Z,77.99
2022-10-25T19:21:20.444Z,78.36
2022-10-25T19:23:54.310Z,78.38
2022-10-25T19:26:31.199Z,78.49
2022-10-25T19:29:04.249Z,78.45
2022-10-25T19:31:37.314Z,78.76
2022-10-25T19:34:10.131Z,78.64
2022-10-25T19:36:43.107Z,78.42
2022-10-25T19:39:15.931Z,78.46
2022-10-25T19:41:50.546Z,78.48
2022-10-25T19:44:23.442Z,78.75
2022-10-25T19:46:56.318Z,78.54
2022-10-25T19:49:29.263Z,78.53
2022-10-25T19:52:02.130Z,78.03
2022-10-25T19:54:34.972Z,77.96
2022-10-25T19:57:09.396Z,77.51
2022-10-25T19:59:42.223Z,77.71
2022-10-25T20:02:15.117Z,77.45
2022-10-25T20:04:48.019Z,77.28
2022-10-25T20:07:21.018Z,77.70
2022-10-25T20:09:54.162Z,78.31
2022-10-25T20:12:30.778Z,78.48
2022-10-25T20:15:03.622Z,78.96
2022-10-25T20:17:37.174Z,79.33
2022-10-25T20:20:11.474Z,79.46
2022-10-25T20:22:44.473Z,79.03
2022-10-25T20:25:17.311Z,78.84
2022-10-25T20:27:52.002Z,78.57
2022-10-25T20:30:24.896Z,78.52
2022-10-25T20:32:57.794Z,78.38
2022-10-25T20:35:30.658Z,78.08
2022-10-25T20:38:03.963Z,78.04
2022-10-25T20:40:36.779Z,77.94
2022-10-25T20:43:11.119Z,78.00
2022-10-25T20:45:48.198Z,77.78
2022-10-25T20:48:21.099Z,77.49
2022-10-25T20:50:54.170Z,77.32
2022-10-25T20:53:27.152Z,77.65
2022-10-25T20:56:00.344Z,77.89
2022-10-25T20:58:35.663Z,78.36
2022-10-25T21:01:08.806Z,78.45
2022-10-25T21:03:42.109Z,78.43
2022-10-25T21:06:14.893Z,78.68
2022-10-25T21:08:47.842Z,78.66
2022-10-25T21:11:20.873Z,78.94
2022-10-25T21:13:55.342Z,79.01
2022-10-25T21:16:28.151Z,79.22
2022-10-25T21:19:04.329Z,79.41
2022-10-25T21:21:37.128Z,79.75
2022-10-25T21:24:11.279Z,79.55
2022-10-25T21:26:44.045Z,79.86
2022-10-25T21:29:18.401Z,79.68
2022-10-25T21:31:51.253Z,79.73
2022-10-25T21:34:24.129Z,79.64
2022-10-25T21:36:56.948Z,79.58
2022-10-25T21:39:30.148Z,79.58
2022-10-25T21:42:02.998Z,79.67
2022-10-25T21:44:37.331Z,79.61
2022-10-25T21:47:10.158Z,79.41
2022-10-25T21:49:42.996Z,79.34
2022-10-25T21:52:15.841Z,79.69
2022-10-25T21:54:48.697Z,79.46
2022-10-25T21:57:21.480Z,79.64
2022-10-25T21:59:55.788Z,79.14
2022-10-25T22:02:28.768Z,79.63
2022-10-25T22:05:01.738Z,79.47
2022-10-25T22:07:34.693Z,79.72
2022-10-25T22:10:08.089Z,79.53
2022-10-25T22:12:40.900Z,79.68
2022-10-25T22:15:15.112Z,79.65
2022-10-25T22:17:47.997Z,79.66
2022-10-25T22:20:20.872Z,79.41
2022-10-25T22:22:53.696Z,79.72
2022-10-25T22:25:26.563Z,79.42
2022-10-25T22:27:59.337Z,79.44
2022-10-25T22:30:33.857Z,79.42
2022-10-25T22:33:06.593Z,79.53
2022-10-25T22:35:39.591Z,79.62
2022-10-25T22:38:12.371Z,79.84
2022-10-25T22:40:45.269Z,79.57
2022-10-25T22:43:18.200Z,79.53
2022-10-25T22:45:52.812Z,79.55
2022-10-25T22:48:25.976Z,79.51
2022-10-25T22:50:59.592Z,79.54
2022-10-25T22:53:33.089Z,79.48
2022-10-25T22:56:09.630Z,79.84
2022-10-25T22:58:44.496Z,79.85
2022-10-25T23:01:20.948Z,80.12
2022-10-25T23:03:55.961Z,79.78
2022-10-25T23:06:31.283Z,80.04
2022-10-25T23:09:07.103Z,80.08
2022-10-25T23:11:41.693Z,80.23
2022-10-25T23:14:17.509Z,80.44
2022-10-25T23:16:52.807Z,80.98
2022-10-25T23:19:25.960Z,81.06
2022-10-25T23:21:59.300Z,81.10
2022-10-25T23:24:32.442Z,81.02
2022-10-25T23:27:07.014Z,81.16
2022-10-25T23:29:40.542Z,81.25
2022-10-25T23:32:17.636Z,81.53
2022-10-25T23:34:52.529Z,81.07
2022-10-25T23:37:29.563Z,81.18
2022-10-25T23:40:02.404Z,81.10
2022-10-25T23:42:35.915Z,81.08
2022-10-25T23:45:11.790Z,81.20
2022-10-25T23:47:48.041Z,81.27
2022-10-25T23:50:22.262Z,80.97
2022-10-25T23:52:55.629Z,80.87
2022-10-25T23:55:29.072Z,80.84
2022-10-25T23:58:02.516Z,80.70
